Surat Thani, Thailand
Current Conditions -  °F | °C
As of 9:00 PM on Thursday 29 Jan 2015 (Local Time) from VTSB Reporting Station
Few Clouds Few Clouds  
Wind Chill: 77°   Ceiling: Unl
Heat Index: 78°   Visibility: 5mi
Dew Point: 72°   Wind: 8mph
Humidity: 83%   Direction: 30°NNE
Pressure: 29.88"   Gusts: NA
Location:  9.14°N, 99.33°E
Report Text: VTSB 291400Z 03007KT 8000 FEW022 25/22 Q1012 A2990
Loading
Personal Weather Stations






























Interactive Weather Map New forecast layout! Learn more

10-Day Weather Forecast

Advertisements
Track Severe Weather on mobile